Time;durP1;ratioP1;P1;durP2;ratioP2;P2;SDS_P1;SDS_P2;PMS_P1;PMS_P2;Temp;Humidity;BMP_temperature;BMP_pressure;BME280_temperature;BME280_humidity;BME280_pressure;Samples;Min_cycle;Max_cycle;Signal;HPM_P1;HPM_P2
2022/02/27 00:01:08;;;;;;;21.83;5.07;;;1.70;99.90;;;;;;5011219;28;20486;-89
2022/02/27 00:03:34;;;;;;;18.30;4.65;;;1.80;99.90;;;;;;5011529;28;20063;-89
2022/02/27 00:05:59;;;;;;;19.95;4.63;;;1.80;99.90;;;;;;5010208;28;20022;-88
2022/02/27 00:08:25;;;;;;;24.73;4.63;;;1.80;99.90;;;;;;5011827;28;20029;-89
2022/02/27 00:10:50;;;;;;;16.95;4.05;;;1.80;99.90;;;;;;5014192;28;20513;-90
2022/02/27 00:13:16;;;;;;;17.30;4.90;;;1.80;99.90;;;;;;5014934;28;20034;-89
2022/02/27 00:15:41;;;;;;;18.40;4.75;;;1.80;99.90;;;;;;5014000;28;20148;-90
2022/02/27 00:18:07;;;;;;;19.80;4.20;;;1.80;99.90;;;;;;5020295;28;20071;-88
2022/02/27 00:20:33;;;;;;;15.15;3.67;;;1.80;99.90;;;;;;5014350;28;20022;-89
2022/02/27 00:22:58;;;;;;;26.90;4.00;;;1.80;99.90;;;;;;5015035;28;20045;-89
2022/02/27 00:25:24;;;;;;;19.75;3.97;;;1.70;99.90;;;;;;5014360;28;20112;-89
2022/02/27 00:27:50;;;;;;;22.77;3.95;;;1.70;99.90;;;;;;5013560;28;20062;-89
2022/02/27 00:30:15;;;;;;;19.23;4.55;;;1.70;99.90;;;;;;5014362;28;20030;-89
2022/02/27 00:32:41;;;;;;;19.63;4.20;;;1.60;99.90;;;;;;5013303;28;20121;-90
2022/02/27 00:35:07;;;;;;;22.67;5.03;;;1.60;99.90;;;;;;5010189;28;20057;-89
2022/02/27 00:37:34;;;;;;;16.30;3.83;;;1.50;99.90;;;;;;5014687;28;20033;-89
2022/02/27 00:40:00;;;;;;;17.65;3.58;;;1.50;99.90;;;;;;5014117;28;20032;-89
2022/02/27 00:42:25;;;;;;;22.27;3.90;;;1.40;99.90;;;;;;5011004;28;20189;-89
2022/02/27 00:44:51;;;;;;;20.15;3.90;;;1.40;99.90;;;;;;5009200;28;20033;-89
2022/02/27 00:47:17;;;;;;;21.83;3.92;;;1.40;99.90;;;;;;5015271;28;20030;-89
2022/02/27 00:49:42;;;;;;;16.73;3.90;;;1.30;99.90;;;;;;5014297;28;20060;-89
2022/02/27 00:52:08;;;;;;;14.32;3.30;;;1.30;99.90;;;;;;5013669;28;20386;-88
2022/02/27 00:54:33;;;;;;;16.80;3.67;;;1.30;99.90;;;;;;5013742;28;20022;-89
2022/02/27 00:56:59;;;;;;;21.33;3.75;;;1.20;99.90;;;;;;5002236;28;20026;-88
2022/02/27 00:59:24;;;;;;;17.75;4.15;;;1.20;99.90;;;;;;5012989;28;20022;-89
2022/02/27 01:01:50;;;;;;;17.98;3.85;;;1.20;99.90;;;;;;5025460;28;20022;-89
2022/02/27 01:04:15;;;;;;;20.63;4.25;;;1.20;99.90;;;;;;5020978;28;20393;-89
2022/02/27 01:06:41;;;;;;;15.05;3.75;;;1.10;99.90;;;;;;5022293;28;20018;-88
2022/02/27 01:09:07;;;;;;;19.05;4.05;;;1.10;99.90;;;;;;5021945;28;20079;-89
2022/02/27 01:11:33;;;;;;;17.30;4.35;;;1.00;99.90;;;;;;5010618;28;20029;-89
2022/02/27 01:14:01;;;;;;;16.35;4.63;;;1.00;99.90;;;;;;5009549;28;20372;-89
2022/02/27 01:16:27;;;;;;;20.25;4.00;;;0.90;99.90;;;;;;5009457;28;20058;-89
2022/02/27 01:18:53;;;;;;;20.55;3.97;;;0.90;99.90;;;;;;5011995;28;20029;-88
2022/02/27 01:21:19;;;;;;;15.15;3.42;;;0.90;99.90;;;;;;5004299;28;20072;-88
2022/02/27 01:23:46;;;;;;;14.93;3.85;;;0.90;99.90;;;;;;5006932;28;20116;-89
2022/02/27 01:26:12;;;;;;;20.02;4.75;;;0.90;99.90;;;;;;5009936;28;20022;-89
2022/02/27 01:28:38;;;;;;;15.70;4.15;;;0.90;99.90;;;;;;5013556;28;20036;-89
2022/02/27 01:31:04;;;;;;;16.95;3.58;;;0.80;99.90;;;;;;5011770;28;20026;-89
2022/02/27 01:33:30;;;;;;;16.75;4.57;;;0.80;99.90;;;;;;5010723;28;20026;-89
2022/02/27 01:35:56;;;;;;;15.85;4.07;;;0.90;99.90;;;;;;5009644;28;20030;-89
2022/02/27 01:38:21;;;;;;;14.02;3.65;;;0.80;99.90;;;;;;5009899;28;20073;-89
2022/02/27 01:40:47;;;;;;;13.68;3.88;;;0.80;99.90;;;;;;5005099;28;20034;-89
2022/02/27 01:43:12;;;;;;;12.75;4.05;;;0.70;99.90;;;;;;5008428;28;20128;-89
2022/02/27 01:45:38;;;;;;;11.90;4.07;;;0.70;99.90;;;;;;5005481;28;20032;-89
2022/02/27 01:48:04;;;;;;;11.77;3.83;;;0.60;99.90;;;;;;5013518;28;20112;-89
2022/02/27 01:50:29;;;;;;;20.33;4.88;;;0.60;99.90;;;;;;5011936;28;20057;-89
2022/02/27 01:52:55;;;;;;;26.10;5.20;;;0.50;99.90;;;;;;5013525;28;20052;-89
2022/02/27 01:55:21;;;;;;;20.63;4.90;;;0.50;99.90;;;;;;5012393;28;20026;-88
2022/02/27 01:57:47;;;;;;;21.13;5.28;;;0.50;99.90;;;;;;5013573;28;20038;-89
2022/02/27 02:00:14;;;;;;;28.10;5.30;;;0.40;99.90;;;;;;5011034;28;20029;-88
2022/02/27 02:02:41;;;;;;;18.45;5.53;;;0.40;99.90;;;;;;5011989;28;20125;-89
2022/02/27 02:05:07;;;;;;;19.83;4.95;;;0.40;99.90;;;;;;5010345;28;20520;-89
2022/02/27 02:07:33;;;;;;;18.95;4.85;;;0.40;99.90;;;;;;5012312;28;20038;-88
2022/02/27 02:09:59;;;;;;;21.77;5.55;;;0.40;99.90;;;;;;5009359;28;20398;-89
2022/02/27 02:12:25;;;;;;;25.27;5.65;;;0.40;99.90;;;;;;5012859;28;20026;-90
2022/02/27 02:14:51;;;;;;;30.30;6.70;;;0.40;99.90;;;;;;5012163;28;20036;-89
2022/02/27 02:17:16;;;;;;;28.45;5.32;;;0.40;99.90;;;;;;5011184;28;20026;-89
2022/02/27 02:19:42;;;;;;;21.55;5.57;;;0.40;99.90;;;;;;5013102;28;20038;-89
2022/02/27 02:22:08;;;;;;;29.63;6.50;;;0.40;99.90;;;;;;5011789;28;20133;-89
2022/02/27 02:24:33;;;;;;;25.67;6.03;;;0.40;99.90;;;;;;4997669;28;20061;-89
2022/02/27 02:26:59;;;;;;;21.83;6.47;;;0.40;99.90;;;;;;5012664;28;20028;-88
2022/02/27 02:29:25;;;;;;;17.20;6.55;;;0.40;99.90;;;;;;5002264;28;20026;-89
2022/02/27 02:31:54;;;;;;;22.65;6.68;;;0.50;99.90;;;;;;5007881;28;20030;-89
2022/02/27 02:34:21;;;;;;;26.30;6.28;;;0.50;99.90;;;;;;5004853;28;20029;-89
2022/02/27 02:36:48;;;;;;;19.05;6.03;;;0.50;99.90;;;;;;5012222;28;20508;-89
2022/02/27 02:39:16;;;;;;;21.83;7.05;;;0.40;99.90;;;;;;5012987;28;20481;-89
2022/02/27 02:41:43;;;;;;;21.27;5.55;;;0.40;99.90;;;;;;5012755;28;20033;-89
2022/02/27 02:44:10;;;;;;;21.08;6.53;;;0.30;99.90;;;;;;5012533;28;20042;-89
2022/02/27 02:46:36;;;;;;;18.83;6.25;;;0.30;99.90;;;;;;5010205;28;20030;-89
2022/02/27 02:49:05;;;;;;;17.75;5.53;;;0.30;99.90;;;;;;5012018;28;20040;-89
2022/02/27 02:51:31;;;;;;;24.30;6.68;;;0.20;99.90;;;;;;5003815;28;20077;-89
2022/02/27 02:53:58;;;;;;;21.02;6.28;;;0.30;99.90;;;;;;5008534;28;20022;-89
2022/02/27 02:56:23;;;;;;;16.73;6.63;;;0.30;99.90;;;;;;5008663;28;20036;-89
2022/02/27 02:58:49;;;;;;;16.40;5.15;;;0.30;99.90;;;;;;5012519;28;20045;-88
2022/02/27 03:01:16;;;;;;;17.83;6.45;;;0.20;99.90;;;;;;5014690;28;20030;-88
2022/02/27 03:03:44;;;;;;;21.42;6.15;;;0.20;99.90;;;;;;5022487;28;20044;-88
2022/02/27 03:06:11;;;;;;;24.38;6.28;;;0.20;99.90;;;;;;5021281;28;20046;-88
2022/02/27 03:08:46;;;;;;;20.65;7.13;;;0.20;99.90;;;;;;5012967;28;20025;-88
2022/02/27 03:11:13;;;;;;;25.13;5.82;;;0.10;99.90;;;;;;5009734;28;20022;-88
2022/02/27 03:13:39;;;;;;;14.20;5.53;;;0.10;99.90;;;;;;5012285;28;20034;-88
2022/02/27 03:16:05;;;;;;;14.90;5.25;;;0.10;99.90;;;;;;5008580;28;20046;-89
2022/02/27 03:18:30;;;;;;;26.50;6.82;;;0.10;99.90;;;;;;5012133;28;20120;-88
2022/02/27 03:20:58;;;;;;;23.05;6.00;;;0.10;99.90;;;;;;5006196;28;20046;-88
2022/02/27 03:23:24;;;;;;;17.92;5.80;;;0.10;99.90;;;;;;5009936;28;20042;-88
2022/02/27 03:25:50;;;;;;;17.02;7.22;;;0.10;99.90;;;;;;5011625;28;20080;-88
2022/02/27 03:28:15;;;;;;;23.42;7.03;;;0.10;99.90;;;;;;5006581;28;20034;-89
2022/02/27 03:30:41;;;;;;;20.55;6.07;;;0.10;99.90;;;;;;5010284;28;20394;-88
2022/02/27 03:33:07;;;;;;;22.40;6.57;;;0.10;99.90;;;;;;5010225;28;20475;-88
2022/02/27 03:35:34;;;;;;;23.85;6.60;;;0.10;99.90;;;;;;5011051;28;20544;-88
2022/02/27 03:38:00;;;;;;;20.95;5.93;;;0.00;99.90;;;;;;5001902;28;20030;-88
2022/02/27 03:40:25;;;;;;;24.60;6.25;;;0.00;99.90;;;;;;5021857;28;20045;-88
2022/02/27 03:42:51;;;;;;;19.17;6.43;;;0.00;99.90;;;;;;5010640;28;20042;-89
2022/02/27 03:45:17;;;;;;;26.02;7.03;;;0.00;99.90;;;;;;5012072;28;20545;-89
2022/02/27 03:47:43;;;;;;;17.13;6.45;;;0.00;99.90;;;;;;5011773;28;20034;-88
2022/02/27 03:50:10;;;;;;;18.05;5.85;;;0.00;99.90;;;;;;5014333;28;20402;-88
2022/02/27 03:52:36;;;;;;;24.90;6.78;;;0.10;99.90;;;;;;5004596;28;20033;-88
2022/02/27 03:55:04;;;;;;;17.48;6.07;;;0.10;99.90;;;;;;5014084;28;20112;-88
2022/02/27 03:57:30;;;;;;;22.10;6.00;;;0.10;99.90;;;;;;5012784;28;20367;-88
2022/02/27 03:59:55;;;;;;;24.77;6.72;;;0.10;99.90;;;;;;5012759;28;20033;-88
2022/02/27 04:02:21;;;;;;;15.18;5.68;;;0.00;99.90;;;;;;5010608;28;20077;-88
2022/02/27 04:04:47;;;;;;;22.90;6.05;;;0.00;99.90;;;;;;5012686;28;20025;-87
2022/02/27 04:07:12;;;;;;;21.67;6.07;;;0.00;99.90;;;;;;5012982;28;20065;-88
2022/02/27 04:09:38;;;;;;;21.45;5.82;;;0.00;99.90;;;;;;5014793;28;20116;-88
2022/02/27 04:12:03;;;;;;;18.38;7.20;;;0.00;99.90;;;;;;5008790;28;20026;-88
2022/02/27 04:14:29;;;;;;;23.48;7.07;;;0.10;99.90;;;;;;5014279;28;20022;-88
2022/02/27 04:16:55;;;;;;;23.58;7.25;;;0.10;99.90;;;;;;5011192;28;20037;-88
2022/02/27 04:19:20;;;;;;;14.05;5.63;;;0.10;99.90;;;;;;5014112;28;20121;-88
2022/02/27 04:21:46;;;;;;;22.50;7.13;;;0.10;99.90;;;;;;5012589;28;20062;-88
2022/02/27 04:24:11;;;;;;;22.27;6.57;;;0.10;99.90;;;;;;5024174;28;20034;-88
2022/02/27 04:26:37;;;;;;;17.10;6.07;;;0.00;99.90;;;;;;5013203;28;20026;-88
2022/02/27 04:29:02;;;;;;;16.60;5.57;;;0.00;99.90;;;;;;5013795;28;20037;-88
2022/02/27 04:31:28;;;;;;;18.75;6.55;;;-0.10;99.90;;;;;;5009358;28;20483;-88
2022/02/27 04:33:53;;;;;;;20.75;7.68;;;-0.10;99.90;;;;;;5021322;28;20022;-88
2022/02/27 04:36:19;;;;;;;18.60;6.55;;;-0.10;99.90;;;;;;5014486;28;20581;-87
2022/02/27 04:38:44;;;;;;;19.73;6.60;;;-0.20;99.90;;;;;;5011196;28;20041;-88
2022/02/27 04:41:10;;;;;;;26.17;8.45;;;-0.10;99.90;;;;;;5013860;28;20022;-88
2022/02/27 04:43:37;;;;;;;25.75;7.53;;;-0.10;99.90;;;;;;5012511;28;20042;-88
2022/02/27 04:46:03;;;;;;;22.20;6.60;;;-0.10;99.90;;;;;;5009994;28;20030;-88
2022/02/27 04:48:28;;;;;;;14.60;6.50;;;-0.10;99.90;;;;;;5011751;28;20520;-89
2022/02/27 04:50:54;;;;;;;21.48;7.65;;;-0.20;99.90;;;;;;5005446;28;20494;-88
2022/02/27 04:53:20;;;;;;;21.00;6.32;;;-0.20;99.90;;;;;;5010182;28;20050;-88
2022/02/27 04:55:46;;;;;;;20.92;6.63;;;-0.30;99.90;;;;;;5006651;28;20040;-89
2022/02/27 04:58:11;;;;;;;12.68;6.93;;;-0.40;99.90;;;;;;5025381;28;20053;-88
2022/02/27 05:00:37;;;;;;;18.17;7.45;;;-0.50;99.90;;;;;;5008792;28;20077;-88
2022/02/27 05:03:02;;;;;;;22.35;6.93;;;-0.50;99.90;;;;;;5007483;28;20041;-88
2022/02/27 05:05:28;;;;;;;24.73;7.93;;;-0.50;99.90;;;;;;5010880;28;20634;-88
2022/02/27 05:07:53;;;;;;;24.17;7.03;;;-0.50;99.90;;;;;;5011616;28;20389;-88
2022/02/27 05:10:19;;;;;;;17.20;6.00;;;-0.60;99.90;;;;;;5026425;28;20149;-88
2022/02/27 05:12:45;;;;;;;15.35;6.55;;;-0.60;99.90;;;;;;5028592;28;20394;-88
2022/02/27 05:15:10;;;;;;;25.95;8.02;;;-0.70;99.90;;;;;;5002144;28;20112;-89
2022/02/27 05:17:36;;;;;;;18.77;6.93;;;-0.70;99.90;;;;;;5024664;28;20034;-88
2022/02/27 05:20:04;;;;;;;24.65;8.63;;;-0.60;99.90;;;;;;5001740;28;20029;-89
2022/02/27 05:22:29;;;;;;;21.52;8.00;;;-0.60;99.90;;;;;;5012604;28;20026;-88
2022/02/27 05:24:55;;;;;;;31.90;6.88;;;-0.60;99.90;;;;;;5013037;28;20068;-89
2022/02/27 05:27:21;;;;;;;25.70;8.02;;;-0.70;99.90;;;;;;5003912;28;20029;-89
2022/02/27 05:29:47;;;;;;;20.13;8.00;;;-0.80;99.90;;;;;;5013578;28;20548;-90
2022/02/27 05:32:12;;;;;;;27.05;8.75;;;-0.80;99.90;;;;;;5013401;28;20133;-88
2022/02/27 05:34:38;;;;;;;35.13;9.68;;;-0.90;99.90;;;;;;5012576;28;20423;-90
2022/02/27 05:37:03;;;;;;;31.90;8.88;;;-0.90;99.90;;;;;;5025092;28;20048;-89
2022/02/27 05:39:29;;;;;;;27.58;8.80;;;-0.90;99.90;;;;;;5018766;28;20026;-88
2022/02/27 05:41:54;;;;;;;23.13;8.55;;;-0.90;99.90;;;;;;5013418;28;20049;-90
2022/02/27 05:44:20;;;;;;;15.55;7.05;;;-0.90;99.90;;;;;;5017644;28;20049;-88
2022/02/27 05:46:46;;;;;;;23.85;8.68;;;-0.90;99.90;;;;;;5007204;28;20045;-88
2022/02/27 05:49:11;;;;;;;18.63;6.72;;;-0.90;99.90;;;;;;5016135;28;20021;-89
2022/02/27 05:51:37;;;;;;;26.70;7.38;;;-0.80;99.90;;;;;;5017252;28;20496;-89
2022/02/27 05:54:02;;;;;;;20.95;8.20;;;-0.80;99.90;;;;;;5015709;28;20091;-88
2022/02/27 05:56:28;;;;;;;20.52;6.95;;;-0.80;99.90;;;;;;5014955;28;20026;-88
2022/02/27 05:58:53;;;;;;;22.58;6.85;;;-0.80;99.90;;;;;;5012300;28;20018;-88
2022/02/27 06:01:19;;;;;;;14.48;5.45;;;-0.80;99.90;;;;;;5016501;28;20030;-89
2022/02/27 06:03:44;;;;;;;14.45;6.43;;;-0.80;99.90;;;;;;5017295;28;20041;-89
2022/02/27 06:06:10;;;;;;;13.57;5.22;;;-0.80;99.90;;;;;;5003938;28;20088;-88
2022/02/27 06:08:36;;;;;;;17.92;5.32;;;-0.70;99.90;;;;;;5008574;28;20033;-89
2022/02/27 06:11:01;;;;;;;23.80;5.80;;;-0.70;99.90;;;;;;5013624;28;20013;-90
2022/02/27 06:13:27;;;;;;;14.15;5.82;;;-0.60;99.90;;;;;;5015513;28;20542;-89
2022/02/27 06:15:53;;;;;;;23.15;6.40;;;-0.60;99.90;;;;;;5026952;28;20045;-90
2022/02/27 06:18:19;;;;;;;17.83;5.97;;;-0.60;99.90;;;;;;5010300;28;20025;-89
2022/02/27 06:20:45;;;;;;;11.65;4.15;;;-0.60;99.90;;;;;;5022345;28;20032;-89
2022/02/27 06:23:11;;;;;;;18.05;6.00;;;-0.60;99.90;;;;;;5011693;28;20073;-90
2022/02/27 06:25:37;;;;;;;19.25;5.45;;;-0.50;99.90;;;;;;5012315;28;20025;-90
2022/02/27 06:28:04;;;;;;;17.85;4.97;;;-0.40;99.90;;;;;;5011632;28;20037;-90
2022/02/27 06:30:29;;;;;;;18.42;5.10;;;-0.40;99.90;;;;;;5012203;28;20037;-90
2022/02/27 06:32:55;;;;;;;11.73;4.55;;;-0.40;99.90;;;;;;5014931;28;20044;-90
2022/02/27 06:35:23;;;;;;;16.40;4.75;;;-0.30;99.90;;;;;;5012861;28;20049;-90
2022/02/27 06:37:52;;;;;;;18.25;5.30;;;-0.30;99.90;;;;;;5016968;28;20090;-89
2022/02/27 06:40:18;;;;;;;14.43;4.70;;;-0.30;99.90;;;;;;5016986;28;20026;-89
2022/02/27 06:42:45;;;;;;;14.18;5.63;;;-0.30;99.90;;;;;;5013275;28;20194;-91
2022/02/27 06:45:13;;;;;;;13.02;5.22;;;-0.30;99.90;;;;;;5015701;28;20029;-89
2022/02/27 06:47:38;;;;;;;13.90;4.38;;;-0.30;99.90;;;;;;5016332;28;20030;-89
2022/02/27 06:50:05;;;;;;;12.35;4.03;;;-0.30;99.90;;;;;;5016462;28;20013;-90
2022/02/27 06:52:31;;;;;;;13.45;4.25;;;-0.30;99.90;;;;;;5015540;28;20116;-90
2022/02/27 06:54:56;;;;;;;18.40;4.60;;;-0.20;99.90;;;;;;5016256;28;20124;-90
2022/02/27 06:57:22;;;;;;;12.75;4.88;;;-0.20;99.90;;;;;;5016692;28;20092;-90
2022/02/27 06:59:47;;;;;;;13.18;4.03;;;-0.10;99.90;;;;;;5025092;28;20396;-90
2022/02/27 07:02:14;;;;;;;12.40;3.65;;;-0.10;99.90;;;;;;5029609;28;20069;-90
2022/02/27 07:04:40;;;;;;;11.65;4.45;;;-0.10;99.90;;;;;;5018351;28;20033;-90
2022/02/27 07:07:05;;;;;;;12.60;4.38;;;-0.10;99.90;;;;;;5016062;28;20497;-90
2022/02/27 07:09:31;;;;;;;13.65;4.60;;;0.00;99.90;;;;;;5014947;28;20072;-90
2022/02/27 07:11:56;;;;;;;15.13;4.60;;;0.00;99.90;;;;;;5015053;28;20025;-90
2022/02/27 07:14:22;;;;;;;12.93;3.30;;;0.00;99.90;;;;;;5015863;28;20091;-90
2022/02/27 07:16:48;;;;;;;10.90;4.68;;;0.10;99.90;;;;;;5015996;28;20022;-90
2022/02/27 07:19:13;;;;;;;11.57;3.55;;;0.20;99.90;;;;;;5014984;28;20473;-90
2022/02/27 07:21:39;;;;;;;14.00;3.97;;;0.20;99.90;;;;;;5015351;28;20615;-91
2022/02/27 07:24:05;;;;;;;14.30;3.42;;;0.30;99.90;;;;;;5011792;28;20044;-90
2022/02/27 07:26:31;;;;;;;9.50;2.60;;;0.40;99.90;;;;;;5010536;28;20022;-90
2022/02/27 07:28:56;;;;;;;9.50;3.40;;;0.40;99.90;;;;;;5009556;28;20029;-90
2022/02/27 07:31:22;;;;;;;11.65;2.80;;;0.50;99.90;;;;;;5025090;28;20025;-90
2022/02/27 07:33:49;;;;;;;12.55;3.58;;;0.60;99.90;;;;;;5030851;28;20033;-90
2022/02/27 07:36:14;;;;;;;17.42;3.80;;;0.80;99.90;;;;;;5030928;28;20113;-91
2022/02/27 07:38:40;;;;;;;9.35;2.38;;;0.90;99.90;;;;;;5014159;28;20473;-89
2022/02/27 07:41:06;;;;;;;16.80;3.13;;;1.10;99.90;;;;;;5012253;28;20881;-89
2022/02/27 07:43:31;;;;;;;10.05;2.95;;;1.30;99.90;;;;;;5011995;28;20053;-91
2022/02/27 07:45:57;;;;;;;14.13;2.28;;;1.40;99.90;;;;;;5011230;28;20113;-90
2022/02/27 07:48:22;;;;;;;12.52;2.58;;;1.50;99.90;;;;;;5011496;28;20037;-89
2022/02/27 07:50:48;;;;;;;10.13;2.20;;;1.60;99.90;;;;;;5010534;28;20040;-89
2022/02/27 07:53:13;;;;;;;12.27;1.75;;;1.70;99.90;;;;;;5010043;28;20084;-89
2022/02/27 07:55:39;;;;;;;10.20;2.35;;;1.90;99.90;;;;;;5016699;28;20080;-90
2022/02/27 07:58:04;;;;;;;12.02;2.22;;;2.00;99.90;;;;;;5019413;28;20404;-90
2022/02/27 08:00:30;;;;;;;10.27;2.80;;;2.20;99.90;;;;;;5010291;28;20064;-89
2022/02/27 08:02:56;;;;;;;13.43;2.05;;;2.30;99.90;;;;;;5029900;28;20041;-88
2022/02/27 08:05:22;;;;;;;9.40;2.15;;;2.40;99.90;;;;;;5015198;28;20025;-88
2022/02/27 08:07:47;;;;;;;6.93;2.03;;;2.50;99.90;;;;;;5014444;28;20037;-89
2022/02/27 08:10:13;;;;;;;12.45;2.88;;;2.70;99.90;;;;;;5016052;28;20025;-89
2022/02/27 08:12:43;;;;;;;6.97;1.60;;;2.90;99.90;;;;;;5012918;28;20029;-87
2022/02/27 08:15:10;;;;;;;12.95;2.40;;;3.00;99.90;;;;;;5018667;28;20030;-88
2022/02/27 08:17:36;;;;;;;9.02;2.13;;;3.10;99.90;;;;;;5015622;28;20079;-89
2022/02/27 08:20:03;;;;;;;10.20;1.75;;;3.20;99.90;;;;;;5017266;28;20095;-89
2022/02/27 08:22:29;;;;;;;9.05;2.28;;;3.30;99.90;;;;;;5011747;28;20386;-89
2022/02/27 08:24:55;;;;;;;11.45;2.10;;;3.40;99.90;;;;;;5010019;28;20030;-89
2022/02/27 08:27:22;;;;;;;13.70;2.45;;;3.60;99.90;;;;;;5031716;28;20521;-88
2022/02/27 08:29:49;;;;;;;12.05;1.95;;;3.60;99.90;;;;;;5011177;28;21728;-87
2022/02/27 08:32:16;;;;;;;11.48;2.55;;;3.70;99.90;;;;;;5016845;28;20043;-91
2022/02/27 08:34:42;;;;;;;9.48;2.88;;;3.90;99.90;;;;;;5029797;28;20067;-91
2022/02/27 08:37:08;;;;;;;8.15;2.53;;;4.00;99.90;;;;;;5026239;28;20025;-89
2022/02/27 08:39:34;;;;;;;8.52;2.08;;;4.10;99.90;;;;;;5013121;28;20427;-91
2022/02/27 08:42:01;;;;;;;9.13;2.53;;;4.20;99.90;;;;;;5016641;28;20398;-91
2022/02/27 08:44:33;;;;;;;6.95;2.00;;;4.20;99.90;;;;;;5016697;28;20030;-92
2022/02/27 08:47:00;;;;;;;10.27;2.10;;;4.30;99.90;;;;;;5015625;28;20057;-91
2022/02/27 08:49:26;;;;;;;6.13;1.95;;;4.50;99.90;;;;;;5015957;28;20076;-88
2022/02/27 08:51:51;;;;;;;13.82;2.65;;;4.50;99.90;;;;;;5014695;28;20030;-88
2022/02/27 08:54:17;;;;;;;7.63;2.53;;;4.70;99.90;;;;;;5011855;28;20030;-89
2022/02/27 08:56:43;;;;;;;9.57;1.85;;;4.80;99.90;;;;;;5016386;28;20049;-88
2022/02/27 08:59:08;;;;;;;7.53;1.58;;;4.90;99.90;;;;;;5013400;28;20030;-88
2022/02/27 09:01:34;;;;;;;6.38;1.50;;;5.00;99.90;;;;;;5008340;28;20033;-88
2022/02/27 09:03:59;;;;;;;14.82;2.00;;;5.10;99.90;;;;;;5023356;28;20091;-89
2022/02/27 09:06:25;;;;;;;10.70;1.92;;;5.10;99.90;;;;;;5007270;28;20044;-88
2022/02/27 09:08:50;;;;;;;9.80;1.60;;;5.20;99.90;;;;;;5014808;28;20664;-88
2022/02/27 09:11:17;;;;;;;8.75;1.77;;;5.30;99.90;;;;;;5016306;28;20531;-88
2022/02/27 09:13:43;;;;;;;5.93;1.55;;;5.40;99.90;;;;;;5016650;28;20068;-87
2022/02/27 09:16:08;;;;;;;10.35;1.83;;;5.40;99.90;;;;;;5011143;28;20049;-88
2022/02/27 09:18:34;;;;;;;6.15;1.67;;;5.50;99.90;;;;;;5016995;28;20120;-87
2022/02/27 09:20:59;;;;;;;6.60;1.95;;;5.50;99.90;;;;;;5013350;28;20029;-88
2022/02/27 09:23:25;;;;;;;7.68;2.28;;;5.60;99.90;;;;;;5016227;28;20033;-88
2022/02/27 09:25:51;;;;;;;10.20;1.58;;;5.70;99.90;;;;;;5015137;28;20030;-88
2022/02/27 09:28:16;;;;;;;8.43;1.70;;;5.70;99.90;;;;;;5014075;28;20033;-87
2022/02/27 09:30:43;;;;;;;9.82;1.50;;;5.70;99.90;;;;;;5016171;28;20044;-88
2022/02/27 09:33:09;;;;;;;5.80;2.08;;;5.80;99.90;;;;;;5013038;28;20086;-88
2022/02/27 09:35:34;;;;;;;7.25;2.03;;;5.80;99.90;;;;;;5024456;28;20096;-88
2022/02/27 09:38:00;;;;;;;7.97;2.55;;;5.80;99.90;;;;;;5012722;28;20030;-88
2022/02/27 09:40:27;;;;;;;6.68;1.98;;;5.90;99.90;;;;;;5012124;28;20053;-88
2022/02/27 09:42:53;;;;;;;7.20;2.47;;;5.80;99.90;;;;;;5030266;28;20136;-88
2022/02/27 09:45:21;;;;;;;10.52;2.50;;;5.80;99.90;;;;;;5014796;28;20025;-87
2022/02/27 09:47:51;;;;;;;8.05;2.72;;;5.80;99.90;;;;;;5016923;28;20105;-87
2022/02/27 09:50:19;;;;;;;7.93;3.03;;;5.90;99.90;;;;;;5016535;28;20031;-88
2022/02/27 09:52:44;;;;;;;13.25;2.97;;;5.90;99.90;;;;;;5003545;28;20076;-88
2022/02/27 09:55:13;;;;;;;8.35;2.45;;;6.00;99.90;;;;;;5029379;28;20022;-88
2022/02/27 09:57:40;;;;;;;8.98;2.65;;;6.10;99.90;;;;;;5018436;28;20032;-87
2022/02/27 10:00:08;;;;;;;8.23;2.97;;;6.10;99.90;;;;;;5025670;28;20029;-88
2022/02/27 10:02:34;;;;;;;9.23;2.78;;;6.20;99.90;;;;;;5017138;28;20084;-89
2022/02/27 10:05:02;;;;;;;9.73;3.15;;;6.20;99.90;;;;;;5013290;28;20433;-89
2022/02/27 10:07:27;;;;;;;8.60;3.05;;;6.30;99.90;;;;;;5036130;28;20025;-88
2022/02/27 10:10:05;;;;;;;9.23;2.70;;;6.30;99.90;;;;;;5012874;28;20037;-90
2022/02/27 10:12:30;;;;;;;10.55;2.75;;;6.40;99.90;;;;;;5032621;28;20116;-89
2022/02/27 10:14:59;;;;;;;11.82;3.05;;;6.40;99.90;;;;;;5016851;28;20098;-88
2022/02/27 10:17:30;;;;;;;7.68;2.80;;;6.40;99.90;;;;;;5014734;28;20053;-89
2022/02/27 10:19:55;;;;;;;12.32;3.03;;;6.40;99.90;;;;;;5019319;28;20029;-88
2022/02/27 10:22:29;;;;;;;8.30;2.53;;;6.40;99.90;;;;;;5016376;28;20128;-87
2022/02/27 10:24:55;;;;;;;8.13;3.30;;;6.40;99.50;;;;;;5014733;28;20497;-89
2022/02/27 10:27:21;;;;;;;13.10;2.97;;;6.50;99.90;;;;;;5026602;28;20033;-87
2022/02/27 10:29:46;;;;;;;8.05;2.47;;;6.60;99.90;;;;;;5016999;28;20018;-89
2022/02/27 10:32:12;;;;;;;10.98;3.05;;;6.50;99.20;;;;;;5017364;28;20120;-88
2022/02/27 10:34:38;;;;;;;8.85;2.92;;;6.60;99.10;;;;;;5016633;28;20109;-90
2022/02/27 10:37:15;;;;;;;8.35;3.20;;;6.60;99.60;;;;;;5012860;28;20030;-86
2022/02/27 10:39:43;;;;;;;11.95;3.20;;;6.70;99.90;;;;;;5023591;28;20044;-86
2022/02/27 10:42:30;;;;;;;8.10;2.30;;;6.70;99.90;;;;;;5020871;28;20053;-88
2022/02/27 10:44:58;;;;;;;9.50;3.15;;;6.80;99.90;;;;;;5022834;28;20489;-89
2022/02/27 10:47:26;;;;;;;7.72;3.15;;;6.80;99.60;;;;;;5016245;28;20049;-89
2022/02/27 10:49:54;;;;;;;7.78;3.05;;;6.90;99.90;;;;;;5013364;28;20480;-88
2022/02/27 10:52:25;;;;;;;8.70;2.65;;;7.00;99.80;;;;;;5027483;28;20023;-89
2022/02/27 10:54:59;;;;;;;8.90;2.67;;;7.10;99.10;;;;;;5016720;28;20052;-89
2022/02/27 10:57:27;;;;;;;6.55;2.58;;;7.10;98.50;;;;;;5011586;28;20031;-86
2022/02/27 10:59:55;;;;;;;8.98;2.40;;;7.20;98.60;;;;;;5012333;28;20120;-89
2022/02/27 11:02:23;;;;;;;6.45;2.67;;;7.20;96.20;;;;;;5013762;28;20036;-88
2022/02/27 11:04:50;;;;;;;6.53;2.60;;;7.20;96.40;;;;;;5012973;28;20033;-88
2022/02/27 11:07:16;;;;;;;8.70;2.92;;;7.20;96.70;;;;;;5011395;28;20034;-88
2022/02/27 11:09:44;;;;;;;9.75;2.17;;;7.30;96.90;;;;;;5012341;28;20630;-89
2022/02/27 11:12:11;;;;;;;6.65;2.10;;;7.40;96.70;;;;;;5027380;28;20030;-88
2022/02/27 11:14:37;;;;;;;6.13;2.00;;;7.40;96.10;;;;;;5024349;28;20030;-88
2022/02/27 11:17:05;;;;;;;8.77;2.20;;;7.50;95.90;;;;;;5023145;28;20083;-87
2022/02/27 11:19:31;;;;;;;7.28;2.03;;;7.60;94.50;;;;;;5012850;28;20535;-88
2022/02/27 11:21:59;;;;;;;5.82;1.95;;;7.60;94.40;;;;;;5014094;28;20029;-88
2022/02/27 11:24:25;;;;;;;8.25;1.98;;;7.70;93.80;;;;;;5016085;28;20060;-88
2022/02/27 11:26:51;;;;;;;6.15;1.58;;;7.70;92.50;;;;;;5014076;28;20033;-86
2022/02/27 11:29:17;;;;;;;5.32;1.73;;;7.80;91.50;;;;;;5015078;28;20025;-87
2022/02/27 11:31:44;;;;;;;5.35;1.42;;;7.80;90.50;;;;;;5016192;28;20036;-87
2022/02/27 11:34:19;;;;;;;4.15;1.63;;;7.80;89.30;;;;;;5013667;28;20037;-88
2022/02/27 11:36:49;;;;;;;6.43;1.42;;;7.90;89.80;;;;;;5029853;28;20504;-89
2022/02/27 11:41:59;;;;;;;4.00;1.50;;;7.90;89.30;;;;;;5023172;28;20078;-88
2022/02/27 11:44:33;;;;;;;5.68;1.50;;;8.00;88.60;;;;;;5011086;28;20041;-88
2022/02/27 11:47:11;;;;;;;4.80;1.40;;;8.10;87.40;;;;;;5011607;28;20473;-88
2022/02/27 11:49:40;;;;;;;3.17;1.10;;;8.10;85.90;;;;;;5014454;28;20037;-88
2022/02/27 11:52:10;;;;;;;6.78;1.40;;;8.10;84.50;;;;;;5010425;28;20412;-88
2022/02/27 11:54:45;;;;;;;6.40;1.27;;;8.20;84.00;;;;;;5013887;28;20435;-88
2022/02/27 11:57:19;;;;;;;5.93;1.60;;;8.20;83.90;;;;;;5007177;28;20584;-88
2022/02/27 12:00:05;;;;;;;5.80;1.50;;;8.30;83.00;;;;;;5024242;28;20029;-87
2022/02/27 12:02:43;;;;;;;4.38;1.20;;;8.30;81.80;;;;;;5013487;28;20120;-88
2022/02/27 12:05:14;;;;;;;2.65;0.98;;;8.30;82.60;;;;;;5012810;28;20030;-88
2022/02/27 12:07:58;;;;;;;3.67;1.40;;;8.40;81.90;;;;;;5040490;28;20473;-87
2022/02/27 12:10:44;;;;;;;6.43;1.20;;;8.40;79.70;;;;;;5012896;28;20029;-87
2022/02/27 12:13:28;;;;;;;4.90;1.67;;;8.50;79.20;;;;;;5032727;28;20112;-88
2022/02/27 12:16:10;;;;;;;5.20;1.40;;;8.40;77.30;;;;;;5017849;28;20034;-88
2022/02/27 12:18:59;;;;;;;4.10;1.20;;;8.40;77.20;;;;;;5014920;28;20584;-86
2022/02/27 12:21:33;;;;;;;4.45;1.00;;;8.50;77.40;;;;;;5032130;28;20034;-88
2022/02/27 12:24:23;;;;;;;5.07;1.50;;;8.50;77.30;;;;;;5012735;28;20029;-88
2022/02/27 12:27:12;;;;;;;4.70;1.52;;;8.50;77.70;;;;;;5017130;28;20029;-89
2022/02/27 12:29:47;;;;;;;4.00;1.20;;;8.70;76.70;;;;;;5018109;28;20034;-88
2022/02/27 12:32:16;;;;;;;3.97;1.50;;;8.70;76.20;;;;;;5018390;28;20056;-89
2022/02/27 12:34:44;;;;;;;5.00;1.35;;;8.70;76.40;;;;;;5014964;28;20401;-87
2022/02/27 12:37:12;;;;;;;7.22;2.17;;;8.80;76.70;;;;;;5017973;28;20036;-88
2022/02/27 12:39:41;;;;;;;5.18;1.10;;;8.80;75.70;;;;;;5016490;28;20041;-89
2022/02/27 12:42:09;;;;;;;2.97;0.90;;;8.80;75.50;;;;;;5011229;28;20401;-88
2022/02/27 12:44:38;;;;;;;6.20;1.65;;;8.90;75.70;;;;;;5015074;28;20045;-88
2022/02/27 12:47:06;;;;;;;6.43;1.40;;;8.90;75.40;;;;;;5011848;28;20038;-89
2022/02/27 12:52:29;;;;;;;3.53;1.25;;;9.00;74.70;;;;;;5034939;28;20044;-89